Time;durP1;ratioP1;P1;durP2;ratioP2;P2;SDS_P1;SDS_P2;PMS_P1;PMS_P2;Temp;Humidity;BMP_temperature;BMP_pressure;BME280_temperature;BME280_humidity;BME280_pressure;Samples;Min_cycle;Max_cycle;Signal;HPM_P1;HPM_P2
2021/01/12 00:00:46;;;;;;;10.32;7.57;;;;;;;18.29;34.50;100214.13;31238564;28;20037;-64
2021/01/12 00:15:47;;;;;;;11.02;8.27;;;;;;;18.26;34.69;100199.44;31236136;28;20029;-64
2021/01/12 00:30:48;;;;;;;10.63;7.22;;;;;;;18.21;34.87;100175.38;31219199;28;20050;-64
2021/01/12 00:45:49;;;;;;;9.90;7.35;;;;;;;18.05;35.00;100146.16;31234937;28;20037;-64
2021/01/12 01:00:50;;;;;;;11.27;7.70;;;;;;;17.98;35.37;100122.19;31217111;28;20475;-64
2021/01/12 01:15:51;;;;;;;9.67;6.90;;;;;;;17.86;35.53;100107.56;31232305;28;20288;-64
2021/01/12 01:30:54;;;;;;;10.73;7.27;;;;;;;17.97;35.21;100070.59;31231623;28;20660;-63
2021/01/12 01:45:55;;;;;;;9.00;7.25;;;;;;;17.99;35.15;100066.84;31234927;28;20345;-64
2021/01/12 02:00:56;;;;;;;9.70;6.70;;;;;;;17.75;35.34;100038.34;31233023;28;20027;-63
2021/01/12 02:15:59;;;;;;;10.03;6.17;;;;;;;17.71;35.62;100018.56;31230684;28;20791;-62
2021/01/12 02:31:00;;;;;;;7.78;6.10;;;;;;;17.64;35.77;99993.81;31246530;28;20347;-63
2021/01/12 02:46:01;;;;;;;9.00;6.20;;;;;;;17.74;35.57;99949.13;31227455;28;20045;-62
2021/01/12 03:01:02;;;;;;;9.23;6.23;;;;;;;17.75;35.51;99933.22;31225970;28;20298;-62
2021/01/12 03:16:03;;;;;;;8.10;6.03;;;;;;;17.77;35.44;99910.25;31207427;28;20758;-64
2021/01/12 03:31:04;;;;;;;7.80;5.82;;;;;;;17.76;35.48;99874.41;31241026;28;20115;-63
2021/01/12 03:46:05;;;;;;;8.13;5.57;;;;;;;17.58;35.86;99847.22;31254629;28;20418;-63
2021/01/12 04:01:07;;;;;;;8.40;5.75;;;;;;;17.52;36.03;99824.16;31220294;28;20280;-63
2021/01/12 04:16:08;;;;;;;7.43;4.80;;;;;;;17.61;35.81;99806.69;31236631;28;20087;-63
2021/01/12 04:31:09;;;;;;;7.40;5.30;;;;;;;17.56;36.09;99804.50;31236114;28;20057;-63
2021/01/12 04:46:10;;;;;;;6.65;5.10;;;;;;;17.56;36.04;99770.34;31217954;28;20296;-63
2021/01/12 05:01:12;;;;;;;7.83;4.63;;;;;;;17.62;35.87;99748.75;31246249;28;20040;-62
2021/01/12 05:16:13;;;;;;;6.32;4.60;;;;;;;17.55;36.19;99710.91;31255754;28;20300;-62
2021/01/12 05:31:14;;;;;;;7.60;4.60;;;;;;;17.40;36.52;99707.91;31236721;28;20033;-63
2021/01/12 05:46:15;;;;;;;5.97;4.40;;;;;;;17.34;36.81;99687.47;31234981;28;20361;-63
2021/01/12 06:01:54;;;;;;;6.18;4.45;;;;;;;17.46;36.46;99667.94;31231439;28;20438;-63
2021/01/12 06:16:55;;;;;;;6.93;3.97;;;;;;;17.44;36.41;99662.00;31231930;28;20403;-63
2021/01/12 06:31:56;;;;;;;5.47;3.67;;;;;;;17.44;36.53;99653.31;31251887;28;20042;-64
2021/01/12 06:46:57;;;;;;;6.10;4.40;;;;;;;17.47;36.50;99643.31;31275487;28;20089;-63
2021/01/12 07:01:58;;;;;;;5.43;3.60;;;;;;;17.46;36.39;99623.28;31309777;28;20395;-63
2021/01/12 07:17:06;;;;;;;8.60;7.35;;;;;;;16.42;31.78;99618.13;31238870;28;20361;-65
2021/01/12 07:32:07;;;;;;;10.52;7.60;;;;;;;12.32;40.00;99623.41;31258010;28;20402;-64
2021/01/12 07:47:08;;;;;;;12.68;6.95;;;;;;;11.04;44.84;99622.16;31240170;28;20479;-66
2021/01/12 08:02:09;;;;;;;11.75;4.80;;;;;;;13.61;43.25;99600.44;31246598;28;20041;-66
2021/01/12 08:17:10;;;;;;;5.07;3.22;;;;;;;15.31;39.45;99589.72;31270107;28;20032;-66
2021/01/12 08:32:13;;;;;;;5.35;2.75;;;;;;;16.41;37.52;99582.41;31182005;28;20049;-70
2021/01/12 08:47:14;;;;;;;5.28;2.70;;;;;;;17.29;36.10;99574.97;31276641;28;20046;-67
2021/01/12 09:02:17;;;;;;;5.27;2.20;;;;;;;17.96;35.49;99569.41;31310199;28;20036;-66
2021/01/12 09:17:18;;;;;;;4.78;2.50;;;;;;;18.31;35.05;99550.09;31352375;28;20362;-67
2021/01/12 09:32:29;;;;;;;7.05;3.65;;;;;;;18.56;34.94;99543.16;31193122;28;20569;-68
2021/01/12 09:47:32;;;;;;;8.65;4.03;;;;;;;18.67;35.15;99531.53;31168111;28;20038;-67
2021/01/12 10:02:33;;;;;;;6.22;4.07;;;;;;;18.78;35.33;99522.53;31215177;28;20471;-67
2021/01/12 10:17:34;;;;;;;6.53;4.50;;;;;;;18.95;34.95;99515.53;31200219;28;20041;-67
2021/01/12 10:32:35;;;;;;;6.70;4.93;;;;;;;19.05;34.78;99498.59;31183610;28;20068;-68
2021/01/12 10:47:43;;;;;;;7.60;5.18;;;;;;;19.13;34.38;99487.28;31171610;28;20037;-67
2021/01/12 11:02:44;;;;;;;8.23;5.43;;;;;;;19.23;34.77;99461.59;31180819;28;20029;-67
2021/01/12 11:17:45;;;;;;;7.83;5.37;;;;;;;19.36;34.44;99449.75;31196966;28;20419;-66
2021/01/12 11:32:46;;;;;;;8.15;5.18;;;;;;;19.37;34.47;99430.31;31214259;28;20292;-66
2021/01/12 11:47:47;;;;;;;8.63;6.13;;;;;;;19.38;34.22;99417.00;31267127;28;20380;-66
2021/01/12 12:02:48;;;;;;;6.03;4.77;;;;;;;19.33;34.33;99418.47;31260330;28;20037;-66
2021/01/12 12:17:49;;;;;;;6.40;5.00;;;;;;;19.29;35.62;99396.06;31257822;28;20314;-66
2021/01/12 12:32:50;;;;;;;6.23;4.60;;;;;;;19.42;35.22;99393.75;31131791;28;20297;-66
2021/01/12 12:47:51;;;;;;;6.83;4.87;;;;;;;19.53;34.58;99397.88;31135584;28;20300;-66
2021/01/12 13:02:52;;;;;;;6.73;4.90;;;;;;;19.57;34.34;99402.63;31128461;28;20303;-66
2021/01/12 13:17:56;;;;;;;6.15;4.63;;;;;;;19.59;34.33;99403.28;31129680;28;20868;-66
2021/01/12 13:32:56;;;;;;;6.57;4.55;;;;;;;19.60;34.29;99407.56;31192343;28;20038;-67
2021/01/12 13:47:58;;;;;;;6.10;4.57;;;;;;;19.59;34.20;99421.75;31180624;28;20043;-67
2021/01/12 14:02:59;;;;;;;8.13;5.40;;;;;;;19.63;34.05;99435.41;31181296;28;20722;-67
2021/01/12 14:18:02;;;;;;;7.05;4.85;;;;;;;19.66;34.33;99456.19;31166275;28;20030;-67
2021/01/12 14:33:03;;;;;;;6.72;5.00;;;;;;;19.69;34.19;99490.13;31155346;28;20121;-66
2021/01/12 14:48:05;;;;;;;7.00;4.70;;;;;;;19.75;34.79;99515.03;31161594;28;20045;-66
2021/01/12 15:03:06;;;;;;;7.40;5.38;;;;;;;19.75;34.55;99544.03;31188170;28;20056;-66
2021/01/12 15:18:06;;;;;;;6.80;4.80;;;;;;;19.71;34.94;99577.78;31198598;28;20033;-66
2021/01/12 15:33:09;;;;;;;6.47;4.73;;;;;;;19.76;34.72;99596.56;31180304;28;20654;-66
2021/01/12 15:48:10;;;;;;;7.80;5.07;;;;;;;19.82;34.46;99611.75;31166972;28;20300;-66
2021/01/12 16:03:11;;;;;;;7.55;5.50;;;;;;;19.84;34.71;99628.22;31174225;28;20475;-66
2021/01/12 16:18:12;;;;;;;7.28;5.18;;;;;;;19.84;34.67;99649.31;31171863;28;20033;-66
2021/01/12 16:33:21;;;;;;;8.70;6.57;;;;;;;19.84;34.58;99656.41;31183838;28;20045;-66
2021/01/12 16:48:25;;;;;;;7.78;6.22;;;;;;;19.88;34.41;99678.81;31150971;28;20087;-66
2021/01/12 17:03:26;;;;;;;8.40;6.55;;;;;;;19.93;34.64;99673.06;31161188;28;20124;-66
2021/01/12 17:18:27;;;;;;;9.75;7.28;;;;;;;19.94;34.48;99680.81;31192189;28;20042;-66
2021/01/12 17:33:28;;;;;;;10.90;7.77;;;;;;;19.99;33.96;99694.31;31157431;28;20129;-67
2021/01/12 17:48:29;;;;;;;11.50;7.70;;;;;;;20.05;34.16;99687.59;31137411;28;20297;-66
2021/01/12 18:03:30;;;;;;;10.82;8.55;;;;;;;20.00;34.61;99692.53;31110561;28;20037;-66
2021/01/12 18:18:31;;;;;;;3.95;2.20;;;;;;;14.14;34.97;99717.22;31213471;28;20474;-65
2021/01/12 18:33:32;;;;;;;7.20;4.25;;;;;;;13.96;41.56;99707.28;31295150;28;20511;-67
2021/01/12 18:48:33;;;;;;;6.85;4.40;;;;;;;16.58;37.98;99711.16;31173979;28;20096;-66
2021/01/12 19:03:34;;;;;;;9.52;6.57;;;;;;;17.96;36.35;99716.63;31167720;28;20423;-67
2021/01/12 19:18:35;;;;;;;10.25;6.97;;;;;;;18.69;34.80;99729.63;31158941;28;20034;-66
2021/01/12 19:33:38;;;;;;;11.52;7.40;;;;;;;19.08;36.81;99731.03;31164961;28;20086;-67
2021/01/12 19:48:39;;;;;;;12.05;7.85;;;;;;;19.01;36.21;99751.88;31188199;28;20052;-66
2021/01/12 20:03:42;;;;;;;10.25;8.15;;;;;;;19.27;35.76;99785.31;31206456;28;20038;-65
2021/01/12 20:18:43;;;;;;;11.77;7.28;;;;;;;19.56;35.75;99835.88;31190973;28;20029;-66
2021/01/12 20:33:44;;;;;;;12.47;8.50;;;;;;;19.75;35.96;99858.59;31211835;28;20051;-66
2021/01/12 20:48:45;;;;;;;11.55;8.55;;;;;;;19.85;36.04;99901.47;31192193;28;20299;-65
2021/01/12 21:03:46;;;;;;;13.10;10.73;;;;;;;19.80;33.84;99919.59;31262661;28;20467;-64
2021/01/12 21:18:47;;;;;;;12.10;9.20;;;;;;;19.77;34.20;99946.28;31237920;28;20045;-65
2021/01/12 21:33:48;;;;;;;5.47;2.73;;;;;;;17.85;27.80;99977.09;31096481;28;20288;-65
2021/01/12 21:48:49;;;;;;;7.57;5.10;;;;;;;17.57;35.88;99998.81;31066564;28;20301;-65
2021/01/12 22:03:50;;;;;;;9.17;6.83;;;;;;;18.43;34.26;100000.56;31079539;28;20284;-65
2021/01/12 22:18:51;;;;;;;12.53;8.00;;;;;;;18.79;34.03;100016.50;31043822;28;20296;-65
2021/01/12 22:33:52;;;;;;;9.50;7.65;;;;;;;18.88;33.87;100033.22;31205835;28;20433;-65
2021/01/12 22:48:53;;;;;;;10.05;7.97;;;;;;;18.86;34.14;100053.59;31183578;28;20622;-64
2021/01/12 23:03:54;;;;;;;9.40;7.67;;;;;;;18.98;34.10;100061.13;31218926;28;20058;-63
2021/01/12 23:18:55;;;;;;;8.37;6.40;;;;;;;18.84;34.64;100078.25;31235899;28;20292;-63
2021/01/12 23:33:56;;;;;;;10.13;7.70;;;;;;;18.88;34.43;100067.44;31248433;28;20307;-63
2021/01/12 23:48:57;;;;;;;10.20;6.72;;;;;;;18.74;34.91;100068.72;31236297;28;20300;-64
